Time;durP1;ratioP1;P1;durP2;ratioP2;P2;SDS_P1;SDS_P2;PMS_P1;PMS_P2;Temp;Humidity;BMP_temperature;BMP_pressure;BME280_temperature;BME280_humidity;BME280_pressure;Samples;Min_cycle;Max_cycle;Signal;HPM_P1;HPM_P2
2022/06/13 00:01:13;;;;;;;;;0.00;0.00;;;;;-146.67;29.81;74855.28;5080449;28;62042;-81
2022/06/13 00:03:39;;;;;;;;;0.75;0.75;;;;;-146.67;30.24;74869.28;5081926;27;61785;-81
2022/06/13 00:06:05;;;;;;;;;1.75;1.75;;;;;-146.67;30.17;74857.28;5082355;27;62255;-82
2022/06/13 00:08:30;;;;;;;;;1.00;1.00;;;;;-146.67;30.30;74873.25;5081282;27;61797;-82
2022/06/13 00:10:56;;;;;;;;;2.00;1.00;;;;;-146.67;30.37;74891.22;5081464;27;62132;-82
2022/06/13 00:13:21;;;;;;;;;0.00;0.00;;;;;-146.67;30.55;74897.22;5082103;27;62017;-81
2022/06/13 00:15:47;;;;;;;;;0.00;0.00;;;;;-146.67;30.37;74905.22;5081570;27;62193;-82
2022/06/13 00:18:12;;;;;;;;;0.00;0.00;;;;;-146.67;30.63;74915.19;5081431;27;61824;-82
2022/06/13 00:20:38;;;;;;;;;0.00;0.00;;;;;-146.67;30.59;74919.19;5081646;27;61901;-81
2022/06/13 00:23:03;;;;;;;;;1.25;1.00;;;;;-146.67;31.06;74937.16;5081900;27;61798;-81
2022/06/13 00:25:29;;;;;;;;;1.00;1.00;;;;;-146.67;30.94;74943.16;5081739;27;61988;-81
2022/06/13 00:27:55;;;;;;;;;0.00;0.00;;;;;-146.67;30.93;74949.13;5081032;27;61776;-82
2022/06/13 00:30:21;;;;;;;;;2.00;1.00;;;;;-146.67;31.07;74935.16;5080057;28;61842;-82
2022/06/13 00:32:47;;;;;;;;;1.75;0.00;;;;;-146.67;30.94;74951.13;5079984;28;61820;-81
2022/06/13 00:35:12;;;;;;;;;1.50;1.00;;;;;-146.67;30.95;74927.16;5081932;27;61965;-82
2022/06/13 00:37:38;;;;;;;;;1.00;1.00;;;;;-146.67;30.99;74927.16;5080634;27;61903;-81
2022/06/13 00:40:05;;;;;;;;;1.00;1.00;;;;;-146.67;31.20;74939.16;5079936;28;62137;-82
2022/06/13 00:42:30;;;;;;;;;1.00;1.00;;;;;-146.67;31.34;74945.16;5084670;27;61917;-82
2022/06/13 00:45:19;;;;;;;;;1.50;1.00;;;;;-146.67;31.28;74951.13;5084950;27;61860;-81
2022/06/13 00:47:48;;;;;;;;;1.00;1.00;;;;;-146.67;31.45;74963.13;5084240;27;62865;-82
2022/06/13 00:50:23;;;;;;;;;1.00;0.50;;;;;-146.67;31.60;74957.13;5083755;28;61976;-82
2022/06/13 00:53:02;;;;;;;;;1.00;1.00;;;;;-146.67;31.27;74947.13;5084706;27;61818;-82
2022/06/13 00:55:56;;;;;;;;;2.00;1.00;;;;;-146.67;31.37;74953.13;5083411;28;62111;-82
2022/06/13 00:58:25;;;;;;;;;2.00;1.00;;;;;-146.67;31.67;74949.13;5084090;27;63021;-81
2022/06/13 01:00:55;;;;;;;;;1.00;1.00;;;;;-146.67;31.75;74951.13;5084671;27;61941;-82
2022/06/13 01:03:22;;;;;;;;;1.00;1.00;;;;;-146.67;31.61;74953.13;5084768;27;61921;-82
2022/06/13 01:05:51;;;;;;;;;1.75;1.75;;;;;-146.67;31.73;74963.13;5083502;28;62093;-81
2022/06/13 01:08:18;;;;;;;;;1.00;1.00;;;;;-146.67;31.75;75003.03;5083837;27;62071;-81
2022/06/13 01:14:14;;;;;;;;;0.50;0.50;;;;;-146.67;32.30;75007.03;5084402;28;61766;-81
2022/06/13 01:17:07;;;;;;;;;1.00;1.00;;;;;-146.67;32.19;75007.03;5084755;27;61784;-82
2022/06/13 01:19:39;;;;;;;;;4.25;1.00;;;;;-146.67;32.33;75005.03;5084181;28;61791;-81
2022/06/13 01:22:19;;;;;;;;;1.00;1.00;;;;;-146.67;32.48;75009.03;5084218;27;61857;-81
2022/06/13 01:24:56;;;;;;;;;4.75;2.50;;;;;-146.67;32.31;75003.03;5084482;27;61749;-81
2022/06/13 01:27:51;;;;;;;;;2.25;1.00;;;;;-146.67;32.29;75001.06;5082991;28;61853;-82
2022/06/13 01:31:02;;;;;;;;;1.50;1.00;;;;;-146.67;32.44;75017.03;5083795;27;61788;-81
2022/06/13 01:34:04;;;;;;;;;1.00;1.00;;;;;-146.67;32.44;75023.00;5084085;27;61909;-81
2022/06/13 01:37:11;;;;;;;;;2.50;1.00;;;;;-146.67;32.82;75033.00;5084167;28;61943;-81
2022/06/13 01:39:45;;;;;;;;;0.00;0.00;;;;;-146.67;32.86;75031.00;5084758;28;61974;-81
2022/06/13 01:42:39;;;;;;;;;2.00;1.00;;;;;-146.67;32.59;75039.00;5081120;27;63947;-82
2022/06/13 01:45:18;;;;;;;;;3.00;1.00;;;;;-146.67;33.06;75066.94;5083908;27;61954;-81
2022/06/13 01:48:02;;;;;;;;;2.50;2.50;;;;;-146.67;33.38;75062.94;5082495;28;62025;-81
2022/06/13 01:50:34;;;;;;;;;3.00;3.00;;;;;-146.67;33.51;75070.94;5084150;28;61892;-81
2022/06/13 01:53:09;;;;;;;;;1.00;1.00;;;;;-146.67;33.70;75084.91;5083044;28;61810;-81
2022/06/13 01:56:01;;;;;;;;;3.25;3.00;;;;;-146.67;33.49;75078.91;5083184;28;61903;-81
2022/06/13 01:58:48;;;;;;;;;2.00;2.00;;;;;-146.67;33.62;75106.88;5082278;28;61861;-82
2022/06/13 02:01:49;;;;;;;;;2.25;2.00;;;;;-146.67;33.58;75110.88;5082260;28;61801;-82
2022/06/13 02:04:25;;;;;;;;;2.50;2.50;;;;;-146.67;33.78;75086.91;5039993;28;62586;-82
2022/06/13 02:07:16;;;;;;;;;1.00;1.00;;;;;-146.67;33.91;75102.88;5024102;28;61917;-81
2022/06/13 02:09:49;;;;;;;;;3.00;2.00;;;;;-146.67;33.82;75100.88;5040401;28;62002;-81
2022/06/13 02:12:18;;;;;;;;;1.00;1.00;;;;;-146.67;34.14;75102.88;5040056;28;61923;-81
2022/06/13 02:14:55;;;;;;;;;3.25;2.00;;;;;-146.67;34.00;75112.88;5056599;28;64369;-82
2022/06/13 02:17:32;;;;;;;;;2.50;2.00;;;;;-146.67;34.22;75106.88;5040271;28;61845;-81
2022/06/13 02:20:05;;;;;;;;;4.25;3.00;;;;;-146.67;34.04;75114.88;5057273;28;61998;-82
2022/06/13 02:22:40;;;;;;;;;2.25;2.25;;;;;-146.67;34.25;75108.88;5040383;28;62015;-81
2022/06/13 02:25:15;;;;;;;;;2.00;1.25;;;;;-146.67;34.04;75104.88;5055761;28;64781;-81
2022/06/13 02:27:44;;;;;;;;;3.00;2.25;;;;;-146.67;34.26;75088.91;5023570;28;61934;-81
2022/06/13 02:30:19;;;;;;;;;1.00;1.00;;;;;-146.67;34.03;75090.91;5039730;28;62072;-81
2022/06/13 02:32:51;;;;;;;;;4.00;2.00;;;;;-146.67;34.08;75090.91;5023764;28;61930;-81
2022/06/13 02:35:27;;;;;;;;;2.00;2.00;;;;;-146.67;34.11;75102.88;5039442;28;62850;-81
2022/06/13 02:37:59;;;;;;;;;0.75;0.00;;;;;-146.67;34.19;75102.88;5023282;28;61895;-81
2022/06/13 02:40:56;;;;;;;;;1.50;1.50;;;;;-146.67;34.22;75098.88;5069388;28;61845;-81
2022/06/13 02:43:28;;;;;;;;;2.00;2.00;;;;;-146.67;34.36;75088.91;5052875;28;61794;-81
2022/06/13 02:46:00;;;;;;;;;1.25;1.25;;;;;-146.67;34.16;75094.91;5061970;28;62111;-81
2022/06/13 02:48:34;;;;;;;;;1.75;1.50;;;;;-146.67;34.11;75090.91;5062283;28;61803;-81
2022/06/13 02:51:39;;;;;;;;;1.00;1.00;;;;;-146.67;33.97;75088.91;5062871;28;61977;-82
2022/06/13 02:54:10;;;;;;;;;1.50;1.50;;;;;-146.67;33.88;75080.91;5060880;28;61999;-82
2022/06/13 03:00:06;;;;;;;;;0.25;0.25;;;;;-146.67;34.05;75096.91;5062210;28;61890;-82
2022/06/13 03:03:05;;;;;;;;;2.00;1.00;;;;;-146.67;33.90;75090.91;5062389;28;61804;-82
2022/06/13 03:05:53;;;;;;;;;1.00;1.00;;;;;-146.67;34.09;75102.88;5062379;28;61852;-81
2022/06/13 03:08:46;;;;;;;;;2.00;2.00;;;;;-146.67;33.98;75118.84;5061035;28;61898;-82
2022/06/13 03:11:36;;;;;;;;;1.25;1.25;;;;;-146.67;34.33;75116.84;5061740;28;62023;-82
2022/06/13 03:14:34;;;;;;;;;3.00;2.00;;;;;-146.67;34.17;75112.88;5060811;28;61921;-82
2022/06/13 03:17:25;;;;;;;;;3.50;3.50;;;;;-146.67;33.90;75100.88;5056765;28;61907;-81
2022/06/13 03:20:02;;;;;;;;;3.75;2.00;;;;;-146.67;34.08;75104.88;5060468;28;64131;-82
2022/06/13 03:22:49;;;;;;;;;3.50;2.00;;;;;-146.67;34.33;75120.84;5061523;28;62403;-81
2022/06/13 03:25:55;;;;;;;;;3.00;1.50;;;;;-146.67;34.20;75110.88;5060059;28;61950;-81
2022/06/13 03:28:48;;;;;;;;;2.25;2.00;;;;;-146.67;34.19;75126.84;5062066;28;62138;-82
2022/06/13 03:31:23;;;;;;;;;2.50;2.00;;;;;-146.67;34.40;75134.81;5059807;28;63580;-82
2022/06/13 03:33:55;;;;;;;;;6.75;3.25;;;;;-146.67;34.25;75110.88;5060261;28;61856;-82
2022/06/13 03:36:36;;;;;;;;;4.50;1.00;;;;;-146.67;34.37;75130.84;5062252;28;61988;-81
2022/06/13 03:39:12;;;;;;;;;4.25;2.75;;;;;-146.67;34.40;75128.84;5061991;28;61894;-81
2022/06/13 03:41:52;;;;;;;;;3.25;2.75;;;;;-146.67;34.27;75120.84;5070956;27;62260;-81
2022/06/13 03:44:25;;;;;;;;;1.00;1.00;;;;;-146.67;34.61;75144.81;5081565;27;61887;-81
2022/06/13 03:46:58;;;;;;;;;2.25;1.00;;;;;-146.67;34.22;75130.84;5082193;27;61799;-82
2022/06/13 03:49:38;;;;;;;;;4.75;2.00;;;;;-146.67;34.39;75142.81;5082176;27;61923;-81
2022/06/13 03:52:08;;;;;;;;;3.25;2.00;;;;;-146.67;34.59;75148.81;5079723;28;63718;-81
2022/06/13 03:54:39;;;;;;;;;2.00;0.00;;;;;-146.67;34.56;75150.81;5081164;27;62026;-81
2022/06/13 03:57:30;;;;;;;;;3.50;2.00;;;;;-146.67;34.62;75132.84;5081503;27;61916;-81
2022/06/13 04:00:11;;;;;;;;;2.75;2.75;;;;;-146.67;34.33;75136.81;5082197;28;61866;-81
2022/06/13 04:02:40;;;;;;;;;2.50;1.75;;;;;-146.67;34.78;75138.81;5081264;27;62991;-81
2022/06/13 04:05:06;;;;;;;;;3.50;2.00;;;;;-146.67;34.54;75138.81;5081795;28;62037;-81
2022/06/13 04:07:36;;;;;;;;;3.50;1.25;;;;;-146.67;34.58;75120.84;5081679;27;61727;-81
2022/06/13 04:10:10;;;;;;;;;3.75;1.00;;;;;-146.67;34.58;75122.84;5080704;28;61804;-81
2022/06/13 04:12:41;;;;;;;;;2.50;2.00;;;;;-146.67;34.71;75118.84;5080963;27;61758;-81
2022/06/13 04:15:42;;;;;;;;;2.50;2.25;;;;;-146.67;34.37;75124.84;5081581;28;61861;-82
2022/06/13 04:18:20;;;;;;;;;3.00;1.75;;;;;-146.67;34.45;75124.84;5083987;28;61915;-81
2022/06/13 04:21:04;;;;;;;;;3.50;1.50;;;;;-146.67;34.45;75118.84;5085381;27;61794;-82
2022/06/13 04:23:40;;;;;;;;;3.00;2.00;;;;;-146.67;34.44;75114.88;5084539;27;61919;-81
2022/06/13 04:26:27;;;;;;;;;6.50;3.25;;;;;-146.67;34.28;75106.88;5084792;27;61866;-82
2022/06/13 04:29:07;;;;;;;;;1.00;1.00;;;;;-146.67;34.37;75106.88;5084087;28;61878;-81
2022/06/13 04:31:34;;;;;;;;;2.50;2.50;;;;;-146.67;34.77;75106.88;5085019;28;61915;-81
2022/06/13 04:34:08;;;;;;;;;2.00;2.00;;;;;-146.67;34.30;75098.88;5084445;27;61886;-81
2022/06/13 04:36:35;;;;;;;;;1.50;1.50;;;;;-146.67;34.66;75096.91;5084505;28;62102;-81
2022/06/13 04:39:07;;;;;;;;;2.00;2.00;;;;;-146.67;34.56;75106.88;5084962;27;61957;-82
2022/06/13 04:41:36;;;;;;;;;3.50;2.00;;;;;-146.67;34.74;75108.88;5083116;27;61995;-81
2022/06/13 04:44:04;;;;;;;;;2.75;1.50;;;;;-146.67;34.50;75092.91;5084359;27;61720;-81
2022/06/13 04:46:31;;;;;;;;;6.75;3.00;;;;;-146.67;34.74;75102.88;5084683;27;61981;-81
2022/06/13 04:48:59;;;;;;;;;4.00;2.00;;;;;-146.67;34.60;75096.91;5083656;28;61928;-81
2022/06/13 04:51:31;;;;;;;;;1.50;1.50;;;;;-146.67;34.80;75096.91;5085064;27;62063;-81
2022/06/13 04:54:00;;;;;;;;;3.00;2.75;;;;;-146.67;34.65;75100.88;5082404;28;63872;-81
2022/06/13 04:56:27;;;;;;;;;5.50;2.25;;;;;-146.67;34.97;75118.84;5083116;28;61988;-81
2022/06/13 04:58:54;;;;;;;;;3.50;3.50;;;;;-146.67;34.92;75124.84;5084834;27;62109;-81
2022/06/13 05:01:25;;;;;;;;;5.50;3.00;;;;;-146.67;35.21;75140.81;5084894;27;61982;-81
2022/06/13 05:03:55;;;;;;;;;3.25;1.25;;;;;-146.67;35.55;75172.78;5083192;27;61738;-80
2022/06/13 05:06:42;;;;;;;;;4.50;2.25;;;;;-146.67;35.52;75186.75;5083333;28;61964;-79
2022/06/13 05:09:10;;;;;;;;;5.25;3.25;;;;;-146.67;35.61;75178.75;5083754;28;61669;-79
2022/06/13 05:11:44;;;;;;;;;3.25;2.00;;;;;-146.67;35.30;75172.78;5084591;27;61825;-77
2022/06/13 05:14:17;;;;;;;;;4.50;2.75;;;;;-146.67;35.57;75178.75;5073712;28;62059;-78
2022/06/13 05:17:08;;;;;;;;;2.75;2.00;;;;;-146.67;35.18;75160.78;5085494;27;61719;-77
2022/06/13 05:19:52;;;;;;;;;3.75;3.00;;;;;-146.67;35.33;75124.84;5084457;27;61803;-79
2022/06/13 05:22:32;;;;;;;;;4.50;3.00;;;;;-146.67;35.38;75120.84;5100217;27;62165;-79
2022/06/13 05:25:24;;;;;;;;;2.00;2.00;;;;;-146.67;35.22;75096.91;5099078;27;63783;-80
2022/06/13 05:27:49;;;;;;;;;5.25;4.00;;;;;-146.67;34.82;75082.91;5074955;28;62055;-80
2022/06/13 05:30:17;;;;;;;;;3.50;2.75;;;;;-146.67;34.76;75068.94;5082897;28;62001;-83
2022/06/13 05:32:43;;;;;;;;;4.00;1.25;;;;;-146.67;34.51;75042.97;5084031;28;61737;-81
2022/06/13 05:35:15;;;;;;;;;2.00;2.00;;;;;-146.67;34.50;75003.03;5083310;28;61793;-80
2022/06/13 05:37:41;;;;;;;;;2.75;2.75;;;;;-146.67;34.04;74975.09;5078517;27;61853;-81
2022/06/13 05:40:14;;;;;;;;;5.00;3.00;;;;;-146.67;33.79;74929.16;5081979;28;61882;-78
2022/06/13 05:42:39;;;;;;;;;6.00;3.50;;;;;-146.67;33.39;74881.25;5082012;28;61864;-77
2022/06/13 05:45:05;;;;;;;;;5.50;3.00;;;;;-146.67;32.96;74825.34;5085826;27;62425;-77
2022/06/13 05:47:31;;;;;;;;;3.75;2.75;;;;;-146.67;32.60;74791.41;5082720;27;62124;-78
2022/06/13 05:49:56;;;;;;;;;3.00;2.00;;;;;-146.67;32.47;74779.41;5083347;28;61827;-79
2022/06/13 05:52:22;;;;;;;;;4.00;3.00;;;;;-146.67;32.21;74755.47;5083625;27;61896;-80
2022/06/13 05:54:47;;;;;;;;;3.00;3.00;;;;;-146.67;32.37;74755.47;5082182;28;62149;-79
2022/06/13 05:57:13;;;;;;;;;6.25;3.00;;;;;-146.67;32.38;74741.50;5082940;27;61944;-82
2022/06/13 05:59:38;;;;;;;;;6.00;3.00;;;;;-146.67;32.31;74747.47;5083302;28;61940;-79
2022/06/13 06:02:04;;;;;;;;;2.75;2.25;;;;;-146.67;32.50;74755.47;5081217;28;61872;-84
2022/06/13 06:04:29;;;;;;;;;4.00;4.00;;;;;-146.67;32.46;74769.44;5081586;28;62381;-82
2022/06/13 06:06:57;;;;;;;;;3.00;3.00;;;;;-146.67;32.44;74775.44;5089910;27;62631;-80
2022/06/13 06:09:27;;;;;;;;;6.50;2.75;;;;;-146.67;32.38;74783.41;5083254;27;62107;-78
2022/06/13 06:11:55;;;;;;;;;4.25;2.00;;;;;-146.67;32.60;74791.41;5082756;27;61982;-82
2022/06/13 06:14:20;;;;;;;;;5.25;3.00;;;;;-146.67;32.67;74821.34;5080537;28;61770;-84
2022/06/13 06:16:45;;;;;;;;;4.50;3.75;;;;;-146.67;32.76;74819.34;5082343;27;61875;-80
2022/06/13 06:19:12;;;;;;;;;4.75;4.00;;;;;-146.67;32.94;74827.34;5083057;27;61875;-81
2022/06/13 06:21:37;;;;;;;;;7.00;3.00;;;;;-146.67;32.87;74815.38;5083594;27;61950;-80
2022/06/13 06:24:03;;;;;;;;;4.75;3.25;;;;;-146.67;32.71;74779.41;5082235;27;62159;-80
2022/06/13 06:26:28;;;;;;;;;4.50;2.25;;;;;-146.67;32.00;74671.59;5082840;27;62059;-79
2022/06/13 06:29:40;;;;;;;;;3.00;3.00;;;;;-146.67;31.40;74615.72;5083124;27;61803;-92
2022/06/13 06:32:06;;;;;;;;;4.00;3.00;;;;;-146.67;31.48;74617.69;5064435;28;61971;-84
2022/06/13 06:34:31;;;;;;;;;3.75;2.50;;;;;-146.67;31.43;74611.72;5080104;27;65049;-86
2022/06/13 06:36:57;;;;;;;;;2.75;2.75;;;;;-146.67;31.51;74603.72;5077990;28;62130;-86
2022/06/13 06:39:23;;;;;;;;;2.75;2.50;;;;;-146.67;31.59;74653.63;5061574;28;61715;-86
2022/06/13 06:41:48;;;;;;;;;6.25;4.00;;;;;-146.67;31.85;74673.59;5082736;28;61820;-87
2022/06/13 06:44:14;;;;;;;;;4.00;4.00;;;;;-146.67;31.97;74699.56;5080051;28;64912;-86
2022/06/13 06:46:39;;;;;;;;;7.00;4.75;;;;;-146.67;32.05;74713.53;5082679;28;61754;-83
2022/06/13 06:49:05;;;;;;;;;2.75;2.75;;;;;-146.67;32.07;74743.47;5081068;28;61816;-79
2022/06/13 06:51:30;;;;;;;;;5.25;3.75;;;;;-146.67;32.29;74753.47;5082376;27;61833;-84
2022/06/13 07:02:10;;;;;;;;;6.75;4.00;;;;;-146.67;32.64;74775.44;5080427;28;62236;-83
2022/06/13 07:04:36;;;;;;;;;3.75;3.00;;;;;-146.67;32.13;74763.44;5080745;28;63593;-82
2022/06/13 07:07:01;;;;;;;;;6.25;2.50;;;;;-146.67;32.40;74775.44;5082491;27;61763;-83
2022/06/13 07:09:27;;;;;;;;;1.00;1.00;;;;;-146.67;32.19;74767.44;5082541;27;61716;-82
2022/06/13 07:11:56;;;;;;;;;2.00;2.00;;;;;-146.67;32.35;74767.44;5082295;27;61815;-83
2022/06/13 07:14:25;;;;;;;;;2.00;2.00;;;;;-146.67;31.96;74755.47;5081419;27;61991;-77
2022/06/13 07:16:50;;;;;;;;;5.50;3.00;;;;;-146.67;31.54;74705.53;5082600;27;61862;-78
2022/06/13 07:19:16;;;;;;;;;5.25;3.50;;;;;-146.67;31.82;74711.53;5080592;28;62251;-88
2022/06/13 07:21:41;;;;;;;;;4.50;2.00;;;;;-146.67;31.23;74683.59;5082435;27;61713;-77
2022/06/13 07:24:07;;;;;;;;;4.25;1.75;;;;;-146.67;31.45;74675.59;5080384;28;64817;-77
2022/06/13 07:26:32;;;;;;;;;3.00;3.00;;;;;-146.67;31.17;74641.66;5081881;27;61813;-78
2022/06/13 07:28:58;;;;;;;;;2.25;2.25;;;;;-146.67;30.84;74625.69;5082247;28;62153;-77
2022/06/13 07:31:33;;;;;;;;;2.00;1.25;;;;;-146.67;30.97;74663.63;5082314;27;62216;-78
2022/06/13 07:33:58;;;;;;;;;6.50;2.50;;;;;-146.67;31.21;74659.63;5081681;27;61881;-78
2022/06/13 07:36:24;;;;;;;;;1.00;1.00;;;;;-146.67;30.76;74681.59;5081306;27;61996;-77
2022/06/13 07:38:49;;;;;;;;;2.50;2.00;;;;;-146.67;30.94;74685.59;5082230;27;61933;-77
2022/06/13 07:41:19;;;;;;;;;3.25;1.50;;;;;-146.67;31.14;74677.59;5074014;27;63071;-77
2022/06/13 07:43:45;;;;;;;;;1.75;1.75;;;;;-146.67;30.89;74669.63;5069727;28;61861;-77
2022/06/13 07:46:12;;;;;;;;;2.00;2.00;;;;;-146.67;29.80;74529.84;5082022;28;61810;-77
2022/06/13 07:48:37;;;;;;;;;4.25;1.50;;;;;-146.67;29.66;74531.84;5104331;27;61957;-77
2022/06/13 07:51:05;;;;;;;;;2.00;2.00;;;;;-146.67;29.44;74533.84;5059899;28;62184;-77
2022/06/13 07:53:32;;;;;;;;;6.75;3.00;;;;;-146.67;30.11;74637.66;5072578;28;62061;-77
2022/06/13 07:55:57;;;;;;;;;2.25;2.00;;;;;-146.67;30.71;74695.56;5080050;28;62098;-77
2022/06/13 07:58:31;;;;;;;;;4.75;0.75;;;;;-146.67;30.72;74691.56;5081415;28;61975;-77
2022/06/13 08:00:57;;;;;;;;;2.00;2.00;;;;;-146.67;30.57;74695.56;5082175;28;61742;-78
2022/06/13 08:03:28;;;;;;;;;2.00;2.00;;;;;-146.67;30.64;74729.50;5081147;27;61848;-77
2022/06/13 08:05:55;;;;;;;;;3.00;2.00;;;;;-146.67;30.88;74719.53;5081923;27;61743;-77
2022/06/13 08:08:20;;;;;;;;;4.50;3.00;;;;;-146.67;30.82;74711.53;5079879;28;61790;-78
2022/06/13 08:10:47;;;;;;;;;2.00;1.00;;;;;-146.67;30.67;74699.56;5081697;28;62013;-78
2022/06/13 08:13:15;;;;;;;;;2.75;1.75;;;;;-146.67;30.38;74707.53;5080861;27;61851;-77
2022/06/13 08:15:41;;;;;;;;;2.00;2.00;;;;;-146.67;30.15;74695.56;5080162;28;61997;-77
2022/06/13 08:18:07;;;;;;;;;4.00;1.00;;;;;-146.67;29.80;74687.56;5114931;27;61958;-77
2022/06/13 08:20:33;;;;;;;;;1.50;1.50;;;;;-146.67;29.99;74651.66;5081733;27;62013;-77
2022/06/13 08:23:00;;;;;;;;;4.50;1.75;;;;;-146.67;30.11;74665.63;5079542;28;65072;-77
2022/06/13 08:25:29;;;;;;;;;3.00;1.25;;;;;-146.67;29.95;74665.63;5081275;28;61790;-77
2022/06/13 08:27:57;;;;;;;;;2.00;2.00;;;;;-146.67;29.97;74661.63;5081256;27;61736;-77
2022/06/13 08:30:22;;;;;;;;;3.25;1.25;;;;;-146.67;29.58;74661.63;5114561;27;62156;-78
2022/06/13 08:32:48;;;;;;;;;4.25;1.25;;;;;-146.67;29.28;74635.66;5080835;28;61928;-78
2022/06/13 08:35:14;;;;;;;;;2.00;2.00;;;;;-146.67;29.38;74657.63;5081583;27;61959;-78
2022/06/13 08:37:40;;;;;;;;;1.00;1.00;;;;;-146.67;29.56;74647.66;5081226;27;61865;-78
2022/06/13 08:40:06;;;;;;;;;2.50;1.00;;;;;-146.67;29.25;74647.66;5114504;27;61994;-78
2022/06/13 08:42:52;;;;;;;;;1.00;1.00;;;;;-146.67;28.86;74627.69;5112822;27;65097;-77
2022/06/13 08:45:24;;;;;;;;;1.00;1.00;;;;;-146.67;28.81;74629.69;5081317;28;61996;-77
2022/06/13 08:48:00;;;;;;;;;0.00;0.00;;;;;-146.67;28.74;74617.69;5081334;28;61769;-78
2022/06/13 08:50:37;;;;;;;;;1.00;1.00;;;;;-146.67;28.95;74623.69;5081227;28;61823;-77
2022/06/13 08:53:09;;;;;;;;;1.25;1.25;;;;;-146.67;28.55;74595.75;5080376;28;62004;-77
2022/06/13 08:55:53;;;;;;;;;1.50;1.50;;;;;-146.67;28.51;74595.75;5080525;28;62120;-78
2022/06/13 08:58:34;;;;;;;;;1.00;1.00;;;;;-146.67;28.47;74589.75;5079794;28;61880;-78
2022/06/13 09:01:07;;;;;;;;;2.00;2.00;;;;;-146.67;28.46;74593.75;5081018;28;61948;-77
2022/06/13 09:03:49;;;;;;;;;2.50;0.75;;;;;-146.67;28.19;74595.75;5083162;28;61896;-78
2022/06/13 09:06:24;;;;;;;;;0.25;0.25;;;;;-146.67;28.36;74591.75;5084609;27;62022;-78
2022/06/13 09:09:02;;;;;;;;;2.00;2.00;;;;;-146.67;28.01;74583.75;5082909;28;61787;-78
2022/06/13 09:12:00;;;;;;;;;1.75;1.00;;;;;-146.67;28.13;74581.75;5084295;27;61937;-78
2022/06/13 09:14:36;;;;;;;;;0.75;0.50;;;;;-146.67;28.18;74577.78;5083630;27;61824;-78
2022/06/13 09:17:20;;;;;;;;;3.25;3.00;;;;;-146.67;28.42;74591.75;5084520;28;61725;-77
2022/06/13 09:20:10;;;;;;;;;4.25;1.75;;;;;-146.67;28.56;74575.78;5083040;28;61820;-78
2022/06/13 09:22:43;;;;;;;;;1.00;1.00;;;;;-146.67;28.35;74579.78;5083087;28;61785;-77
2022/06/13 09:26:04;;;;;;;;;3.00;1.00;;;;;-146.67;28.50;74575.78;5082147;28;64156;-78
2022/06/13 09:28:34;;;;;;;;;1.00;1.00;;;;;-146.67;28.27;74573.78;5038824;27;62078;-77
2022/06/13 09:31:08;;;;;;;;;2.25;1.75;;;;;-146.67;27.96;74541.84;5084060;28;61913;-77
2022/06/13 09:33:37;;;;;;;;;2.00;2.00;;;;;-146.67;27.41;74533.84;5082835;28;62191;-77
2022/06/13 09:36:10;;;;;;;;;3.00;1.50;;;;;-146.67;27.60;74535.84;5082286;28;64233;-78
2022/06/13 09:39:00;;;;;;;;;1.00;1.00;;;;;-146.67;27.99;74557.81;5083769;28;61870;-78
2022/06/13 09:41:54;;;;;;;;;1.00;1.00;;;;;-146.67;27.37;74557.81;5077960;27;62043;-77
2022/06/13 09:44:37;;;;;;;;;2.50;2.00;;;;;-146.67;27.47;74527.84;5082772;28;62101;-78
2022/06/13 09:47:24;;;;;;;;;1.00;1.00;;;;;-146.67;27.30;74521.88;5083660;28;61911;-78
2022/06/13 09:50:14;;;;;;;;;1.00;1.00;;;;;-146.67;27.15;74547.81;5083557;28;61750;-77
2022/06/13 09:53:12;;;;;;;;;1.00;1.00;;;;;-146.67;27.13;74523.88;5082397;28;61931;-77
2022/06/13 09:55:53;;;;;;;;;2.00;0.50;;;;;-146.67;26.55;74509.88;5077284;28;61809;-78
2022/06/13 09:58:44;;;;;;;;;2.00;0.00;;;;;-146.67;26.74;74495.91;5083400;28;61752;-77
2022/06/13 10:01:28;;;;;;;;;2.50;1.00;;;;;-146.67;26.56;74481.94;5083682;28;62097;-77
2022/06/13 10:03:59;;;;;;;;;1.00;1.00;;;;;-146.67;26.48;74461.97;5082585;28;61797;-77
2022/06/13 10:06:46;;;;;;;;;1.25;1.25;;;;;-146.67;26.25;74454.00;5083367;28;61858;-77
2022/06/13 10:09:26;;;;;;;;;1.00;1.00;;;;;-146.67;26.51;74457.97;5082631;28;61794;-78
2022/06/13 10:12:10;;;;;;;;;2.25;1.00;;;;;-146.67;26.14;74448.00;5083155;28;62459;-77
2022/06/13 10:14:56;;;;;;;;;2.00;1.25;;;;;-146.67;26.16;74436.03;5083388;28;61880;-78
2022/06/13 10:17:56;;;;;;;;;1.00;1.00;;;;;-146.67;26.50;74450.00;5083605;28;61777;-78
2022/06/13 10:20:41;;;;;;;;;1.75;1.75;;;;;-146.67;26.18;74442.00;5023027;28;65141;-77
2022/06/13 10:23:13;;;;;;;;;2.25;1.00;;;;;-146.67;26.79;74463.97;5040213;28;62543;-78
2022/06/13 10:25:38;;;;;;;;;7.50;4.50;;;;;-146.67;26.24;74442.00;5039940;28;61943;-77
2022/06/13 10:28:24;;;;;;;;;1.00;1.00;;;;;-146.67;26.82;74418.06;5040693;28;61954;-78
2022/06/13 10:31:05;;;;;;;;;1.50;1.00;;;;;-146.67;26.43;74394.09;5039416;28;63902;-78
2022/06/13 10:34:07;;;;;;;;;2.75;0.75;;;;;-146.67;26.29;74368.16;5039787;28;62017;-78
2022/06/13 10:36:57;;;;;;;;;1.75;1.00;;;;;-146.67;26.55;74382.13;5019081;28;62181;-77
2022/06/13 10:39:25;;;;;;;;;2.50;1.00;;;;;-146.67;26.21;74364.16;5040151;28;62408;-77
2022/06/13 10:41:57;;;;;;;;;1.00;1.00;;;;;-146.67;26.82;74388.09;5038685;28;62039;-76
2022/06/13 10:44:23;;;;;;;;;3.25;2.00;;;;;-146.67;26.39;74358.16;5039949;28;61991;-76
2022/06/13 10:46:58;;;;;;;;;1.50;1.50;;;;;-146.67;26.64;74350.19;5039863;28;61846;-76
2022/06/13 10:49:43;;;;;;;;;2.00;2.00;;;;;-146.67;26.38;74350.19;5040188;28;61887;-76
2022/06/13 10:52:16;;;;;;;;;0.00;0.00;;;;;-146.67;26.46;74342.19;5039024;28;63048;-76
2022/06/13 10:54:47;;;;;;;;;2.00;0.00;;;;;-146.67;26.55;74322.22;5038910;28;62009;-76
2022/06/13 10:57:19;;;;;;;;;1.50;0.50;;;;;-146.67;26.11;74306.25;5048135;28;62376;-76
2022/06/13 11:00:07;;;;;;;;;2.75;1.25;;;;;-146.67;26.17;74296.28;5062732;28;61908;-76
2022/06/13 11:02:34;;;;;;;;;2.50;1.00;;;;;-146.67;25.99;74274.31;5061746;28;61762;-76
2022/06/13 11:05:34;;;;;;;;;1.00;1.00;;;;;-146.67;25.76;74254.34;5060505;28;61805;-76
2022/06/13 11:08:01;;;;;;;;;3.75;1.75;;;;;-146.67;25.63;74274.31;5056427;28;62145;-76
2022/06/13 11:10:36;;;;;;;;;1.00;1.00;;;;;-146.67;25.72;74270.31;5060996;28;61716;-76
2022/06/13 11:13:05;;;;;;;;;1.25;1.25;;;;;-146.67;25.88;74246.38;5060366;28;62881;-76
2022/06/13 11:24:40;;;;;;;;;0.50;0.50;;;;;-146.67;25.25;74196.47;5059965;28;61836;-76
2022/06/13 11:30:30;;;;;;;;;0.50;0.50;;;;;-146.67;25.37;74168.50;5061254;28;61795;-77
2022/06/13 11:32:59;;;;;;;;;1.25;0.50;;;;;-146.67;25.00;74174.50;5038311;28;61834;-77
2022/06/13 11:35:41;;;;;;;;;3.25;1.75;;;;;-146.67;25.31;74174.50;5037405;28;62154;-77
2022/06/13 11:38:32;;;;;;;;;0.00;0.00;;;;;-146.67;25.06;74148.56;5038404;28;62009;-77
2022/06/13 11:41:17;;;;;;;;;4.00;1.00;;;;;-146.67;24.90;74136.56;5024542;28;61891;-76
2022/06/13 11:44:05;;;;;;;;;1.50;0.50;;;;;-146.67;24.60;74034.75;5001441;28;61968;-77
2022/06/13 11:46:44;;;;;;;;;1.50;1.50;;;;;-146.67;23.56;73883.06;4992725;28;63953;-77
2022/06/13 11:49:36;;;;;;;;;3.00;1.00;;;;;-146.67;23.72;73767.28;5007530;28;62197;-76
2022/06/13 11:55:30;;;;;;;;;0.33;0.33;;;;;-146.67;22.06;73402.00;5017771;28;62241;-76
2022/06/13 11:57:58;;;;;;;;;2.67;1.67;;;;;-146.67;21.39;73250.31;5025145;28;62045;-76
2022/06/13 12:00:26;;;;;;;;;3.33;0.00;;;;;-146.67;21.34;73116.59;5018217;28;62348;-77
2022/06/13 12:02:54;;;;;;;;;2.00;1.00;;;;;-146.67;20.45;72988.88;5001863;28;61959;-76
2022/06/13 12:05:36;;;;;;;;;2.00;0.67;;;;;-146.67;20.27;72887.09;5018228;28;62337;-76
2022/06/13 12:08:16;;;;;;;;;1.00;1.00;;;;;-146.67;20.39;72707.50;5017561;28;62844;-77
2022/06/13 12:11:00;;;;;;;;;4.00;0.00;;;;;-146.67;20.16;72677.56;5037979;28;61818;-79
2022/06/13 12:13:29;;;;;;;;;2.33;1.00;;;;;-146.67;19.76;72567.81;5038467;28;62332;-77
2022/06/13 12:16:23;;;;;;;;;0.67;0.67;;;;;-146.67;19.47;72448.09;5074016;28;62151;-81
2022/06/13 12:19:00;;;;;;;;;1.00;1.00;;;;;-146.67;19.00;72340.34;5038161;28;63839;-77
2022/06/13 12:21:29;;;;;;;;;0.00;0.00;;;;;-146.67;18.85;72250.53;5040806;28;61907;-77
2022/06/13 12:24:01;;;;;;;;;0.33;0.33;;;;;-146.67;18.23;72194.69;5039197;28;62022;-76